Time;durP1;ratioP1;P1;durP2;ratioP2;P2;SDS_P1;SDS_P2;PMS_P1;PMS_P2;Temp;Humidity;BMP_temperature;BMP_pressure;BME280_temperature;BME280_humidity;BME280_pressure;Samples;Min_cycle;Max_cycle;Signal;HPM_P1;HPM_P2
2021/08/22 00:01:08;;;;;;;3.50;1.95;;;;;;;17.96;100.00;101348.28;5171692;28;20109;-68
2021/08/22 00:03:40;;;;;;;4.63;2.40;;;;;;;17.98;100.00;101359.53;5171258;28;20050;-67
2021/08/22 00:06:12;;;;;;;3.37;2.73;;;;;;;17.94;100.00;101358.19;5171621;28;20069;-67
2021/08/22 00:08:43;;;;;;;5.57;2.77;;;;;;;17.90;100.00;101349.75;5171644;28;20061;-68
2021/08/22 00:11:14;;;;;;;3.25;2.53;;;;;;;17.92;100.00;101353.06;5171007;28;20037;-67
2021/08/22 00:13:45;;;;;;;3.33;2.97;;;;;;;17.90;100.00;101347.09;5172049;28;20035;-67
2021/08/22 00:16:17;;;;;;;4.17;2.63;;;;;;;17.89;100.00;101348.09;5171758;28;20033;-67
2021/08/22 00:18:48;;;;;;;5.30;3.13;;;;;;;17.89;100.00;101334.84;5171558;28;20314;-67
2021/08/22 00:21:20;;;;;;;4.13;2.67;;;;;;;17.82;100.00;101340.97;5171148;28;20029;-67
2021/08/22 00:23:51;;;;;;;3.50;3.20;;;;;;;17.84;100.00;101341.63;5171727;28;20039;-67
2021/08/22 00:26:22;;;;;;;4.70;3.58;;;;;;;17.78;100.00;101335.19;5172577;28;20019;-67
2021/08/22 00:28:53;;;;;;;4.03;2.72;;;;;;;17.75;100.00;101338.16;5169710;28;20077;-67
2021/08/22 00:31:25;;;;;;;5.65;3.42;;;;;;;17.74;100.00;101336.47;5171625;28;20484;-67
2021/08/22 00:33:56;;;;;;;5.63;3.95;;;;;;;17.71;100.00;101337.63;5172078;28;20432;-67
2021/08/22 00:36:27;;;;;;;4.57;3.57;;;;;;;17.69;100.00;101339.63;5169999;28;20384;-67
2021/08/22 00:38:58;;;;;;;4.75;3.75;;;;;;;17.69;100.00;101338.75;5170906;28;20050;-67
2021/08/22 00:41:30;;;;;;;4.18;3.67;;;;;;;17.67;100.00;101333.63;5170011;28;20500;-67
2021/08/22 00:44:01;;;;;;;4.55;3.55;;;;;;;17.65;100.00;101348.91;5172024;28;20440;-67
2021/08/22 00:46:35;;;;;;;4.15;3.67;;;;;;;17.68;100.00;101353.00;5171902;28;20022;-67
2021/08/22 00:49:07;;;;;;;4.28;3.78;;;;;;;17.65;100.00;101338.28;5171552;28;20027;-67
2021/08/22 00:51:40;;;;;;;5.60;4.40;;;;;;;17.64;100.00;101333.97;5170250;28;20037;-67
2021/08/22 00:54:11;;;;;;;4.53;3.95;;;;;;;17.65;100.00;101340.94;5171028;28;20085;-68
2021/08/22 00:56:43;;;;;;;4.77;4.27;;;;;;;17.66;100.00;101339.13;5172030;28;20031;-67
2021/08/22 00:59:18;;;;;;;6.03;4.80;;;;;;;17.67;100.00;101336.28;5171068;28;20038;-68
2021/08/22 01:01:52;;;;;;;5.80;5.18;;;;;;;17.62;100.00;101333.31;5171655;28;20026;-68
2021/08/22 01:04:35;;;;;;;5.72;5.22;;;;;;;17.70;100.00;101329.84;5170925;28;20026;-68
2021/08/22 01:07:27;;;;;;;6.10;5.50;;;;;;;17.73;100.00;101322.41;5169804;28;20023;-68
2021/08/22 01:09:58;;;;;;;5.90;5.30;;;;;;;17.65;100.00;101327.69;5171645;28;20034;-68
2021/08/22 01:12:34;;;;;;;11.35;6.68;;;;;;;17.68;100.00;101322.03;5172432;28;20077;-68
2021/08/22 01:15:09;;;;;;;7.97;7.07;;;;;;;17.67;100.00;101324.88;5175827;28;20035;-66
2021/08/22 01:17:47;;;;;;;8.75;7.95;;;;;;;17.69;100.00;101325.50;5174815;28;20030;-68
2021/08/22 01:20:47;;;;;;;10.00;8.07;;;;;;;17.81;100.00;101326.06;5175435;28;20427;-68
2021/08/22 01:23:19;;;;;;;10.02;8.88;;;;;;;17.68;100.00;101322.03;5174042;28;20031;-68
2021/08/22 01:25:52;;;;;;;10.43;9.43;;;;;;;17.75;100.00;101316.94;5175585;28;20115;-68
2021/08/22 01:28:23;;;;;;;;;;;;;;;18.03;100.00;101325.38;5176261;28;20388;-68
2021/08/22 01:30:59;;;;;;;11.48;10.27;;;;;;;17.82;100.00;101325.91;5173098;28;19922;-68
2021/08/22 01:33:32;;;;;;;13.80;11.35;;;;;;;17.75;100.00;101314.28;5174868;28;20396;-68
2021/08/22 01:36:03;;;;;;;14.70;12.93;;;;;;;17.77;100.00;101324.72;5174941;28;20496;-66
2021/08/22 01:38:35;;;;;;;15.23;13.30;;;;;;;17.73;100.00;101319.75;5175279;28;20073;-68
2021/08/22 01:41:08;;;;;;;18.97;16.30;;;;;;;17.77;100.00;101327.38;5173468;28;20058;-68
2021/08/22 01:43:39;;;;;;;20.35;16.20;;;;;;;17.78;100.00;101326.41;5174268;28;20030;-68
2021/08/22 01:46:12;;;;;;;19.17;16.67;;;;;;;17.82;100.00;101322.41;5174754;28;20015;-66
2021/08/22 01:48:44;;;;;;;21.60;18.65;;;;;;;17.83;100.00;101324.06;5174232;28;20049;-68
2021/08/22 01:51:15;;;;;;;27.35;20.05;;;;;;;17.79;100.00;101323.56;5174904;28;20037;-68
2021/08/22 01:53:47;;;;;;;29.10;23.40;;;;;;;17.78;100.00;101327.22;5173366;28;20031;-68
2021/08/22 01:56:19;;;;;;;33.13;25.70;;;;;;;17.75;100.00;101338.97;5174355;28;20527;-68
2021/08/22 01:58:50;;;;;;;42.03;29.25;;;;;;;17.72;100.00;101333.97;5174476;28;20034;-68
2021/08/22 02:01:21;;;;;;;40.33;30.63;;;;;;;17.73;100.00;101332.16;5172994;28;20369;-67
2021/08/22 02:04:09;;;;;;;41.72;32.95;;;;;;;17.76;100.00;101334.50;5174366;28;20030;-68
2021/08/22 02:06:47;;;;;;;42.75;33.83;;;;;;;17.75;100.00;101338.97;5172219;28;20386;-68
2021/08/22 02:09:25;;;;;;;47.08;33.85;;;;;;;17.77;100.00;101340.63;5174752;28;20025;-68
2021/08/22 02:12:01;;;;;;;45.40;35.42;;;;;;;17.76;100.00;101337.16;5172511;28;20495;-68
2021/08/22 02:14:36;;;;;;;44.95;35.10;;;;;;;17.75;100.00;101344.28;5172631;28;20412;-68
2021/08/22 02:17:08;;;;;;;45.65;36.35;;;;;;;17.72;100.00;101339.25;5174083;28;20026;-66
2021/08/22 02:19:40;;;;;;;50.87;38.20;;;;;;;17.75;100.00;101344.28;5174265;28;20019;-68
2021/08/22 02:22:11;;;;;;;47.87;38.23;;;;;;;17.70;100.00;101333.31;5172240;28;20041;-67
2021/08/22 02:24:42;;;;;;;45.78;36.15;;;;;;;17.77;100.00;101338.81;5174171;28;20070;-68
2021/08/22 02:27:14;;;;;;;45.57;34.93;;;;;;;17.77;100.00;101343.28;5174083;28;20019;-68
2021/08/22 02:29:48;;;;;;;45.55;35.20;;;;;;;17.75;100.00;101338.97;5172325;28;20093;-68
2021/08/22 02:32:19;;;;;;;47.40;35.88;;;;;;;17.73;100.00;101335.66;5173134;28;20515;-67
2021/08/22 02:34:51;;;;;;;50.22;38.47;;;;;;;17.75;100.00;101338.16;5173656;28;20035;-68
2021/08/22 02:37:22;;;;;;;47.83;37.42;;;;;;;17.77;100.00;101328.22;5172924;28;20675;-68
2021/08/22 02:39:55;;;;;;;46.57;36.93;;;;;;;17.75;100.00;101328.38;5172268;28;20043;-68
2021/08/22 02:42:26;;;;;;;48.78;38.53;;;;;;;17.74;100.00;101336.47;5173535;28;20023;-68
2021/08/22 02:44:57;;;;;;;53.63;39.83;;;;;;;17.74;100.00;101334.63;5172507;28;20029;-68
2021/08/22 02:47:29;;;;;;;56.22;41.65;;;;;;;17.77;100.00;101335.31;5173612;28;20023;-68
2021/08/22 02:50:00;;;;;;;55.60;40.47;;;;;;;17.78;100.00;101350.25;5173344;28;20411;-68
2021/08/22 02:52:31;;;;;;;57.20;40.83;;;;;;;17.80;100.00;101351.72;5174002;28;20380;-68
2021/08/22 02:55:03;;;;;;;55.10;40.87;;;;;;;17.81;100.00;101347.28;5172084;28;20049;-68
2021/08/22 02:57:34;;;;;;;50.80;39.33;;;;;;;17.81;100.00;101342.81;5173562;28;20034;-68
2021/08/22 03:00:06;;;;;;;51.10;38.67;;;;;;;17.84;100.00;101344.28;5173721;28;20582;-68
2021/08/22 03:02:37;;;;;;;49.70;38.20;;;;;;;17.81;100.00;101336.69;5173159;28;20124;-68
2021/08/22 03:05:09;;;;;;;50.95;40.20;;;;;;;17.80;100.00;101338.47;5171448;28;20050;-68
2021/08/22 03:07:40;;;;;;;54.50;42.45;;;;;;;17.79;100.00;101336.00;5174140;28;20023;-68
2021/08/22 03:10:13;;;;;;;55.38;40.75;;;;;;;17.77;100.00;101335.31;5173686;28;20034;-68
2021/08/22 03:12:44;;;;;;;53.30;40.30;;;;;;;17.74;100.00;101334.63;5172504;28;20031;-68
2021/08/22 03:15:15;;;;;;;55.25;42.17;;;;;;;17.74;100.00;101333.81;5172425;28;20042;-68
2021/08/22 03:17:47;;;;;;;54.13;40.77;;;;;;;17.73;100.00;101338.28;5172305;28;20034;-68
2021/08/22 03:20:18;;;;;;;55.17;42.03;;;;;;;17.71;100.00;101342.91;5171935;28;20034;-68
2021/08/22 03:22:49;;;;;;;54.00;41.30;;;;;;;17.73;100.00;101332.16;5172436;28;20027;-68
2021/08/22 03:25:21;;;;;;;56.60;41.33;;;;;;;17.73;100.00;101337.47;5173118;28;20027;-67
2021/08/22 03:27:52;;;;;;;63.95;45.45;;;;;;;17.65;100.00;101335.63;5172986;28;20031;-68
2021/08/22 03:30:23;;;;;;;55.53;42.83;;;;;;;17.65;100.00;101333.00;5172537;28;20485;-68
2021/08/22 03:32:55;;;;;;;57.07;43.80;;;;;;;17.67;100.00;101338.94;5172333;28;20388;-69
2021/08/22 03:35:26;;;;;;;60.13;44.27;;;;;;;17.65;100.00;101334.78;5171823;28;20094;-68
2021/08/22 03:37:58;;;;;;;56.97;41.78;;;;;;;17.66;100.00;101339.94;5173009;28;20023;-68
2021/08/22 03:40:29;;;;;;;53.33;40.72;;;;;;;17.68;100.00;101342.41;5172195;28;20038;-68
2021/08/22 03:43:00;;;;;;;54.63;41.35;;;;;;;17.69;100.00;101341.41;5170697;28;20026;-68
2021/08/22 03:45:31;;;;;;;52.03;41.40;;;;;;;17.68;100.00;101339.75;5171701;28;20019;-68
2021/08/22 03:48:04;;;;;;;50.45;38.60;;;;;;;17.68;100.00;101343.25;5172404;28;20026;-68
2021/08/22 03:50:35;;;;;;;51.88;39.33;;;;;;;17.67;100.00;101343.41;5172129;28;20030;-68
2021/08/22 03:53:06;;;;;;;51.83;38.27;;;;;;;17.67;100.00;101349.53;5172855;28;20046;-67
2021/08/22 03:55:38;;;;;;;55.13;41.07;;;;;;;17.68;100.00;101348.53;5171143;28;20469;-68
2021/08/22 03:58:09;;;;;;;55.22;41.15;;;;;;;17.65;100.00;101356.84;5172257;28;20480;-68
2021/08/22 04:00:40;;;;;;;49.80;39.60;;;;;;;17.64;100.00;101356.97;5169819;28;20026;-67
2021/08/22 04:03:12;;;;;;;50.83;40.65;;;;;;;17.59;100.00;101356.66;5172796;28;20495;-69
2021/08/22 04:05:43;;;;;;;50.00;39.58;;;;;;;17.57;100.00;101348.03;5170614;28;20035;-68
2021/08/22 04:08:14;;;;;;;51.67;39.40;;;;;;;17.54;100.00;101351.00;5170716;28;20022;-68
2021/08/22 04:10:46;;;;;;;44.83;36.90;;;;;;;17.52;100.00;101348.53;5171720;28;20022;-68
2021/08/22 04:13:17;;;;;;;49.78;40.30;;;;;;;17.47;100.00;101340.25;5172167;28;20453;-69
2021/08/22 04:15:49;;;;;;;52.93;39.90;;;;;;;17.47;100.00;101349.03;5171035;28;20034;-68
2021/08/22 04:18:20;;;;;;;47.67;38.93;;;;;;;17.46;100.00;101343.88;5170392;28;20106;-68
2021/08/22 04:20:52;;;;;;;54.83;40.67;;;;;;;17.45;100.00;101350.16;5171972;28;20106;-67
2021/08/22 04:23:23;;;;;;;50.58;40.80;;;;;;;17.45;100.00;101344.88;5172505;28;20035;-68
2021/08/22 04:25:54;;;;;;;49.03;39.83;;;;;;;17.42;100.00;101340.72;5170540;28;20023;-68
2021/08/22 04:28:26;;;;;;;51.05;39.97;;;;;;;17.43;100.00;101349.53;5171584;28;20093;-67
2021/08/22 04:30:58;;;;;;;50.00;40.47;;;;;;;17.40;100.00;101348.00;5170845;28;20046;-68
2021/08/22 04:33:29;;;;;;;53.70;42.92;;;;;;;17.41;100.00;101348.84;5172249;28;20461;-68
2021/08/22 04:36:00;;;;;;;53.72;42.28;;;;;;;17.38;100.00;101346.50;5170353;28;20618;-69
2021/08/22 04:38:34;;;;;;;54.50;44.40;;;;;;;17.43;100.00;101354.81;5172111;28;20048;-68
2021/08/22 04:41:05;;;;;;;56.85;42.75;;;;;;;17.40;100.00;101352.47;5171757;28;20432;-68
2021/08/22 04:43:37;;;;;;;51.90;42.55;;;;;;;17.41;100.00;101352.31;5171621;28;20035;-66
2021/08/22 04:46:08;;;;;;;51.27;42.87;;;;;;;17.38;100.00;101347.31;5169445;28;20074;-68
2021/08/22 04:48:39;;;;;;;49.72;41.83;;;;;;;17.36;100.00;101348.50;5169835;28;20031;-67
2021/08/22 04:51:11;;;;;;;54.30;41.72;;;;;;;17.37;100.00;101350.97;5170996;28;20023;-67
2021/08/22 04:53:42;;;;;;;51.72;42.25;;;;;;;17.34;100.00;101355.78;5171067;28;20117;-68
2021/08/22 04:56:13;;;;;;;53.38;41.30;;;;;;;17.34;100.00;101353.13;5171123;28;20059;-68
2021/08/22 04:58:44;;;;;;;57.63;43.05;;;;;;;17.30;100.00;101354.44;5170273;28;20154;-68
2021/08/22 05:01:16;;;;;;;50.42;40.10;;;;;;;17.32;100.00;101361.25;5170805;28;20080;-68
2021/08/22 05:03:47;;;;;;;53.45;43.10;;;;;;;17.29;100.00;101360.72;5171226;28;20302;-67
2021/08/22 05:06:18;;;;;;;49.75;39.60;;;;;;;17.30;100.00;101359.72;5169857;28;20022;-68
2021/08/22 05:08:50;;;;;;;48.90;41.55;;;;;;;17.27;100.00;101364.38;5171759;28;20628;-68
2021/08/22 05:11:21;;;;;;;45.67;39.38;;;;;;;17.25;100.00;101362.88;5171472;28;20050;-68
2021/08/22 05:13:52;;;;;;;53.63;41.90;;;;;;;17.23;100.00;101363.00;5169228;28;20069;-68
2021/08/22 05:16:23;;;;;;;47.25;40.97;;;;;;;17.24;100.00;101366.53;5171506;28;20354;-68
2021/08/22 05:18:55;;;;;;;46.97;39.50;;;;;;;17.26;100.00;101370.66;5170789;28;20035;-68
2021/08/22 05:21:27;;;;;;;48.88;39.28;;;;;;;17.27;100.00;101366.16;5170534;28;20027;-67
2021/08/22 05:23:58;;;;;;;45.80;38.70;;;;;;;17.30;100.00;101372.97;5171585;28;20062;-66
2021/08/22 05:26:30;;;;;;;45.30;38.80;;;;;;;17.33;100.00;101370.84;5171973;28;20102;-68
2021/08/22 05:29:02;;;;;;;42.80;37.22;;;;;;;17.37;100.00;101366.03;5169755;28;20171;-68
2021/08/22 05:31:33;;;;;;;41.97;35.72;;;;;;;17.32;100.00;101369.19;5170872;28;20035;-68
2021/08/22 05:34:04;;;;;;;41.05;35.38;;;;;;;17.30;100.00;101360.56;5171392;28;20030;-67
2021/08/22 05:36:40;;;;;;;40.90;33.55;;;;;;;17.32;100.00;101373.66;5169864;28;20031;-68
2021/08/22 05:39:11;;;;;;;39.03;32.67;;;;;;;17.25;100.00;101363.69;5170864;28;20043;-69
2021/08/22 05:41:42;;;;;;;36.00;31.38;;;;;;;17.26;100.00;101372.47;5170983;28;20539;-69
2021/08/22 05:44:14;;;;;;;38.15;32.35;;;;;;;17.28;100.00;101362.56;5170268;28;20026;-69
2021/08/22 05:46:45;;;;;;;36.30;30.65;;;;;;;17.28;100.00;101367.84;5171598;28;20496;-69
2021/08/22 05:49:16;;;;;;;38.27;29.10;;;;;;;17.26;100.00;101370.66;5170969;28;20385;-67
2021/08/22 05:51:48;;;;;;;31.77;28.05;;;;;;;17.30;100.00;101365.84;5169206;28;20104;-69
2021/08/22 05:54:20;;;;;;;32.80;27.60;;;;;;;17.29;100.00;101373.97;5169768;28;20023;-68
2021/08/22 05:56:51;;;;;;;32.40;27.23;;;;;;;17.36;100.00;101372.34;5171823;28;20489;-69
2021/08/22 05:59:22;;;;;;;31.10;26.42;;;;;;;17.39;100.00;101378.16;5174887;28;20073;-68
2021/08/22 06:01:53;;;;;;;36.80;26.37;;;;;;;17.42;100.00;101369.84;5173217;28;20385;-69
2021/08/22 06:04:25;;;;;;;32.00;25.58;;;;;;;17.40;100.00;101371.03;5173296;28;20730;-68
2021/08/22 06:06:56;;;;;;;29.67;24.63;;;;;;;17.42;100.00;101371.69;5174502;28;20050;-69
2021/08/22 06:09:30;;;;;;;31.40;23.30;;;;;;;17.51;100.00;101371.53;5175097;28;20080;-69
2021/08/22 06:12:02;;;;;;;29.42;24.65;;;;;;;17.44;100.00;101372.34;5171041;28;20026;-68
2021/08/22 06:14:33;;;;;;;27.55;22.67;;;;;;;17.49;100.00;101375.34;5174305;28;20497;-68
2021/08/22 06:17:04;;;;;;;27.35;21.75;;;;;;;17.50;100.00;101377.84;5174363;28;20031;-67
2021/08/22 06:19:35;;;;;;;24.77;20.83;;;;;;;17.54;100.00;101383.66;5173976;28;20034;-69
2021/08/22 06:22:07;;;;;;;26.90;21.73;;;;;;;17.56;100.00;101384.28;5171791;28;20033;-68
2021/08/22 06:24:38;;;;;;;27.65;20.95;;;;;;;17.54;100.00;101385.44;5172368;28;20030;-69
2021/08/22 06:27:10;;;;;;;25.48;21.38;;;;;;;17.64;100.00;101384.31;5174419;28;20335;-67
2021/08/22 06:29:41;;;;;;;24.95;20.45;;;;;;;17.66;100.00;101381.50;5172133;28;20058;-69
2021/08/22 06:32:13;;;;;;;25.47;21.63;;;;;;;17.73;100.00;101387.81;5174909;28;20034;-68
2021/08/22 06:34:44;;;;;;;23.20;19.73;;;;;;;17.76;100.00;101392.81;5174083;28;20420;-69
2021/08/22 06:37:15;;;;;;;25.77;20.35;;;;;;;17.77;100.00;101394.47;5174303;28;20435;-68
2021/08/22 06:39:48;;;;;;;24.23;20.17;;;;;;;17.80;100.00;101388.00;5172438;28;20516;-69
2021/08/22 06:42:19;;;;;;;;;;;;;;;18.08;100.00;101386.72;5174470;28;20022;-69
2021/08/22 06:44:51;;;;;;;22.57;18.50;;;;;;;17.90;100.00;101391.34;5173838;28;20276;-69
2021/08/22 06:47:23;;;;;;;23.37;19.53;;;;;;;17.92;100.00;101392.84;5173662;28;20027;-69
2021/08/22 06:49:54;;;;;;;25.33;18.50;;;;;;;17.96;100.00;101388.03;5173167;28;20121;-68
2021/08/22 06:52:26;;;;;;;24.25;18.83;;;;;;;18.00;100.00;101389.38;5175169;28;20038;-68
2021/08/22 06:54:57;;;;;;;25.20;17.90;;;;;;;18.09;100.00;101396.31;5170859;28;20026;-68
2021/08/22 06:57:28;;;;;;;25.43;19.43;;;;;;;18.10;100.00;101390.00;5173898;28;20030;-69
2021/08/22 07:00:00;;;;;;;20.10;18.07;;;;;;;18.03;100.00;101378.41;5172641;28;20489;-69
2021/08/22 07:02:31;;;;;;;22.27;19.37;;;;;;;18.07;100.00;101393.00;5172518;28;20098;-68
2021/08/22 07:05:03;;;;;;;19.95;17.88;;;;;;;18.06;100.00;101393.97;5160427;28;20149;-68
2021/08/22 07:07:35;;;;;;;23.05;19.05;;;;;;;18.12;100.00;101400.47;5173071;28;20488;-68
2021/08/22 07:10:07;;;;;;;22.60;18.90;;;;;;;18.09;100.00;101401.63;5171417;28;20030;-68
2021/08/22 07:12:38;;;;;;;23.48;18.80;;;;;;;18.16;100.00;101404.44;5173312;28;20023;-68
2021/08/22 07:15:11;;;;;;;20.38;18.13;;;;;;;18.16;100.00;101399.13;5173634;28;20125;-68
2021/08/22 07:17:43;;;;;;;16.65;14.85;;;;;;;18.15;100.00;101408.09;5173411;28;20027;-69
2021/08/22 07:20:14;;;;;;;17.45;14.38;;;;;;;18.13;100.00;101407.41;5172449;28;20481;-69
2021/08/22 07:22:45;;;;;;;14.27;12.87;;;;;;;18.15;100.00;101411.56;5173014;28;20388;-69
2021/08/22 07:25:17;;;;;;;14.43;12.88;;;;;;;18.13;100.00;101400.28;5172077;28;20039;-68
2021/08/22 07:27:49;;;;;;;12.70;11.38;;;;;;;18.11;100.00;101396.16;5170664;28;20062;-68
2021/08/22 07:30:22;;;;;;;12.47;10.57;;;;;;;18.15;100.00;101398.31;5172974;28;20645;-68
2021/08/22 07:32:53;;;;;;;11.27;10.05;;;;;;;18.14;100.00;101401.09;5172282;28;20027;-68
2021/08/22 07:35:25;;;;;;;12.20;10.90;;;;;;;18.24;100.00;101399.94;5171461;28;20397;-68
2021/08/22 07:37:56;;;;;;;11.93;10.70;;;;;;;18.29;100.00;101401.28;5172462;28;20388;-68
2021/08/22 07:40:27;;;;;;;13.20;11.95;;;;;;;18.29;100.00;101398.63;5169073;28;20493;-68
2021/08/22 07:42:59;;;;;;;13.67;12.23;;;;;;;18.40;100.00;101401.75;5171196;28;20038;-68
2021/08/22 07:45:30;;;;;;;14.20;12.80;;;;;;;18.45;100.00;101396.78;5172931;28;20018;-68
2021/08/22 07:48:01;;;;;;;14.80;13.40;;;;;;;18.57;100.00;101391.97;5171344;28;20037;-68
2021/08/22 07:50:33;;;;;;;17.07;14.83;;;;;;;18.51;100.00;101389.16;5172320;28;20081;-68
2021/08/22 07:53:05;;;;;;;18.07;14.90;;;;;;;18.66;100.00;101398.06;5171664;28;20030;-68
2021/08/22 07:55:36;;;;;;;16.77;14.50;;;;;;;18.81;100.00;101400.88;5171945;28;20034;-68
2021/08/22 07:58:07;;;;;;;15.03;13.20;;;;;;;18.81;100.00;101396.41;5172364;28;20045;-68
2021/08/22 08:00:39;;;;;;;15.73;13.93;;;;;;;18.86;100.00;101401.19;5171320;28;20026;-67
2021/08/22 08:03:10;;;;;;;16.07;14.10;;;;;;;18.84;100.00;101404.03;5171530;28;20034;-67
2021/08/22 08:05:41;;;;;;;14.77;13.27;;;;;;;18.91;100.00;101401.53;5172674;28;20010;-68
2021/08/22 08:08:13;;;;;;;14.93;13.32;;;;;;;18.96;100.00;101401.84;5172913;28;20295;-68
2021/08/22 08:10:45;;;;;;;14.77;13.30;;;;;;;18.93;100.00;101407.47;5170321;28;20037;-68
2021/08/22 08:13:18;;;;;;;13.20;11.90;;;;;;;19.01;100.00;101409.28;5172491;28;20030;-68
2021/08/22 08:15:49;;;;;;;15.50;13.48;;;;;;;18.87;100.00;101408.19;5169491;28;20120;-68
2021/08/22 08:18:20;;;;;;;13.48;12.18;;;;;;;18.88;100.00;101412.47;5169778;28;20546;-68
2021/08/22 08:20:51;;;;;;;14.33;12.93;;;;;;;18.82;100.00;101410.50;5168697;28;20031;-68
2021/08/22 08:23:23;;;;;;;14.00;12.40;;;;;;;18.71;100.00;101417.84;5170625;28;20034;-68
2021/08/22 08:25:54;;;;;;;13.20;11.90;;;;;;;18.66;100.00;101414.81;5169307;28;20031;-68
2021/08/22 08:28:25;;;;;;;13.27;11.80;;;;;;;18.76;100.00;101414.69;5169347;28;20031;-68
2021/08/22 08:30:57;;;;;;;13.50;12.10;;;;;;;18.78;100.00;101414.50;5169323;28;20388;-68
2021/08/22 08:33:28;;;;;;;14.53;11.47;;;;;;;18.80;100.00;101421.31;5168034;28;20151;-68
2021/08/22 08:36:00;;;;;;;15.30;13.67;;;;;;;18.83;100.00;101422.78;5170378;28;20105;-68
2021/08/22 08:38:31;;;;;;;14.73;13.00;;;;;;;18.86;100.00;101427.75;5170083;28;20157;-68
2021/08/22 08:41:03;;;;;;;14.10;12.33;;;;;;;18.78;100.00;101430.41;5169320;28;20329;-68
2021/08/22 08:43:35;;;;;;;14.30;12.27;;;;;;;18.82;100.00;101427.25;5167968;28;20506;-68
2021/08/22 08:46:17;;;;;;;19.33;12.43;;;;;;;18.93;100.00;101428.72;5169968;28;20029;-68
2021/08/22 08:49:27;;;;;;;14.55;11.30;;;;;;;18.99;100.00;101433.34;5169524;28;20022;-68
2021/08/22 08:52:40;;;;;;;13.70;10.65;;;;;;;18.89;100.00;101428.22;5168833;28;20089;-68
2021/08/22 08:55:18;;;;;;;13.23;9.07;;;;;;;18.79;100.00;101427.63;5166476;28;20039;-68
2021/08/22 08:57:50;;;;;;;10.88;9.40;;;;;;;18.87;100.00;101432.91;5169841;28;20051;-68
2021/08/22 09:00:25;;;;;;;11.47;7.93;;;;;;;19.03;100.00;101437.31;5169873;28;20099;-68
2021/08/22 09:02:56;;;;;;;10.20;7.97;;;;;;;19.04;100.00;101435.50;5168230;28;20487;-69
2021/08/22 09:05:59;;;;;;;12.73;8.80;;;;;;;19.26;100.00;101433.94;5169229;28;20054;-68
2021/08/22 09:08:33;;;;;;;10.70;7.78;;;;;;;19.32;100.00;101435.88;5168545;28;20078;-68
2021/08/22 09:11:26;;;;;;;9.88;7.18;;;;;;;19.45;100.00;101434.31;5169619;28;20216;-68
2021/08/22 09:14:25;;;;;;;9.48;7.53;;;;;;;19.53;100.00;101428.13;5168500;28;20041;-68
2021/08/22 09:17:53;;;;;;;9.57;7.28;;;;;;;19.61;100.00;101436.06;5168328;28;20094;-68
2021/08/22 09:21:02;;;;;;;11.50;7.28;;;;;;;19.61;100.00;101437.91;5169789;28;20404;-68
2021/08/22 09:23:48;;;;;;;8.27;6.72;;;;;;;19.52;100.00;101434.47;5171026;28;20023;-68
2021/08/22 09:26:58;;;;;;;10.25;7.25;;;;;;;19.57;100.00;101437.41;5169676;28;20023;-68
2021/08/22 09:29:48;;;;;;;8.60;6.20;;;;;;;19.62;100.00;101437.78;5169825;28;20510;-68
2021/08/22 09:32:56;;;;;;;8.10;6.18;;;;;;;19.63;100.00;101442.06;5170483;28;20480;-69
2021/08/22 09:35:34;;;;;;;10.38;6.38;;;;;;;19.66;100.00;101446.19;5172898;28;20041;-68
2021/08/22 09:38:23;;;;;;;9.68;5.68;;;;;;;19.84;100.00;101443.25;5173271;28;20097;-67
2021/08/22 09:41:00;;;;;;;9.20;5.20;;;;;;;19.72;100.00;101444.69;5170801;28;20156;-68
2021/08/22 09:43:50;;;;;;;8.85;4.53;;;;;;;19.71;100.00;101446.50;5174908;28;20035;-68
2021/08/22 09:46:59;;;;;;;9.43;5.03;;;;;;;19.90;100.00;101451.38;5173772;28;20034;-68
2021/08/22 09:50:00;;;;;;;8.27;4.70;;;;;;;20.07;100.00;101457.41;5175066;28;20062;-68
2021/08/22 09:53:19;;;;;;;7.10;4.15;;;;;;;20.13;100.00;101450.56;5172632;28;20019;-68
2021/08/22 09:56:28;;;;;;;7.18;5.03;;;;;;;20.07;100.00;101448.59;5174101;28;20089;-68
2021/08/22 09:59:17;;;;;;;7.22;4.88;;;;;;;20.03;100.00;101455.28;5174088;28;20113;-68
2021/08/22 10:02:06;;;;;;;8.63;4.60;;;;;;;20.25;100.00;101457.09;5171695;28;20085;-68
2021/08/22 10:04:57;;;;;;;8.98;4.45;;;;;;;20.30;100.00;101456.56;5173439;28;20033;-69
2021/08/22 10:07:56;;;;;;;10.45;4.50;;;;;;;20.40;100.00;101455.31;5175123;28;20101;-68
2021/08/22 10:10:32;;;;;;;7.75;4.78;;;;;;;20.34;100.00;101458.69;5173538;28;20031;-69
2021/08/22 10:13:03;;;;;;;10.82;4.82;;;;;;;20.22;100.00;101459.28;5172135;28;20062;-69
2021/08/22 10:15:34;;;;;;;8.83;4.53;;;;;;;20.10;100.00;101459.69;5170395;28;20475;-69
2021/08/22 10:18:07;;;;;;;9.50;5.03;;;;;;;20.06;100.00;101468.22;5170574;28;20038;-69
2021/08/22 10:20:39;;;;;;;9.10;5.05;;;;;;;19.93;100.00;101452.88;5171296;28;20027;-69
2021/08/22 10:23:41;;;;;;;12.90;5.43;;;;;;;20.00;100.00;101448.50;5172039;28;20027;-69
2021/08/22 10:26:44;;;;;;;7.22;4.65;;;;;;;20.02;100.00;101456.28;5171264;28;20113;-69
2021/08/22 10:29:20;;;;;;;;;;;;;;;20.23;100.00;101458.28;5170379;28;20026;-69
2021/08/22 10:32:02;;;;;;;8.30;5.28;;;;;;;19.80;100.00;101464.06;5173763;28;19965;-70
2021/08/22 10:34:35;;;;;;;8.68;5.10;;;;;;;19.80;100.00;101448.09;5173929;28;20034;-69
2021/08/22 10:37:31;;;;;;;8.98;5.05;;;;;;;19.98;100.00;101453.16;5171068;28;20089;-69
2021/08/22 10:40:21;;;;;;;8.80;5.80;;;;;;;20.02;100.00;101456.28;5171473;28;20408;-68
2021/08/22 10:43:12;;;;;;;7.25;4.75;;;;;;;20.08;100.00;101447.59;5169655;28;20027;-69
2021/08/22 10:45:51;;;;;;;9.35;5.35;;;;;;;19.96;100.00;101441.03;5171216;28;20041;-68
2021/08/22 10:48:22;;;;;;;6.20;5.10;;;;;;;19.94;100.00;101435.91;5172595;28;20029;-68
2021/08/22 10:50:56;;;;;;;8.20;5.23;;;;;;;20.21;100.00;101426.53;5170758;28;20400;-69
2021/08/22 10:53:29;;;;;;;13.75;6.53;;;;;;;20.44;100.00;101426.50;5173887;28;20357;-69
2021/08/22 10:56:28;;;;;;;9.73;5.90;;;;;;;20.87;100.00;101419.59;5172692;28;20055;-70
2021/08/22 10:59:04;;;;;;;12.85;7.45;;;;;;;21.05;100.00;101411.22;5172718;28;20039;-70
2021/08/22 11:01:40;;;;;;;8.13;6.05;;;;;;;21.14;100.00;101415.44;5171670;28;20035;-69
2021/08/22 11:04:12;;;;;;;11.60;7.05;;;;;;;21.32;100.00;101411.56;5172463;28;20384;-70
2021/08/22 11:06:55;;;;;;;7.70;5.97;;;;;;;21.48;100.00;101407.88;5171207;28;20038;-69
2021/08/22 11:09:45;;;;;;;9.65;5.13;;;;;;;21.61;100.00;101414.19;5172028;28;20078;-69
2021/08/22 11:12:32;;;;;;;7.25;5.05;;;;;;;21.72;100.00;101414.69;5170315;28;20022;-70
2021/08/22 11:15:04;;;;;;;6.40;4.38;;;;;;;21.79;100.00;101423.59;5171069;28;20038;-70
2021/08/22 11:17:36;;;;;;;8.07;4.30;;;;;;;21.79;100.00;101407.59;5172214;28;20077;-70
2021/08/22 11:20:07;;;;;;;6.90;4.13;;;;;;;21.85;100.00;101404.16;5172005;28;20026;-70
2021/08/22 11:22:39;;;;;;;6.87;3.57;;;;;;;22.11;100.00;101403.56;5172291;28;20424;-70
2021/08/22 11:25:11;;;;;;;6.33;3.80;;;;;;;22.17;100.00;101410.84;5170649;28;20105;-70
2021/08/22 11:27:44;;;;;;;9.80;4.28;;;;;;;22.18;100.00;101417.00;5171291;28;21027;-70
2021/08/22 11:30:16;;;;;;;7.75;4.00;;;;;;;22.18;100.00;101412.50;5172365;28;20030;-70
2021/08/22 11:32:50;;;;;;;5.43;3.33;;;;;;;22.36;100.00;101404.00;5172530;28;20093;-70
2021/08/22 11:35:22;;;;;;;5.95;4.47;;;;;;;22.52;100.00;101409.03;5171906;28;20054;-70
2021/08/22 11:37:57;;;;;;;7.75;5.10;;;;;;;22.54;100.00;101407.03;5171666;28;20027;-70
2021/08/22 11:40:30;;;;;;;7.47;4.75;;;;;;;22.80;100.00;101409.00;5172616;28;20125;-70
2021/08/22 11:43:04;;;;;;;5.78;4.10;;;;;;;22.70;100.00;101410.41;5185624;28;20046;-70